Terminal Aerodrome Forecast
Issued by NWS

Home | Current Version | Previous Version | Text Only | Print | Product List | Glossary On
Versions: 1 2 3 4 5 6 7 8 9 10 11 12 13
639
FTUS41 KBTV 251451 AAA
TAFSLK
TAF AMD
KSLK 251451Z 2515/2612 23011G19KT P6SM VCSH SCT025 OVC045
      TEMPO 2515/2519 -SHRA BKN025
     FM260000 23010KT P6SM BKN025
     FM260600 23005KT 3SM BR BKN005=

USA.gov is the U.S. government's official web portal to all federal, state and local government web resources and services.